sensor_id;sensor_type;location;lat;lon;timestamp;temperature;humidity
52889;DHT22;41413;52.770;6.892;2023-03-03T00:01:28;2.40;99.90
52889;DHT22;41413;52.770;6.892;2023-03-03T00:03:56;2.40;99.90
52889;DHT22;41413;52.770;6.892;2023-03-03T00:06:22;2.40;99.90
52889;DHT22;41413;52.770;6.892;2023-03-03T00:08:50;2.40;99.90
52889;DHT22;41413;52.770;6.892;2023-03-03T00:11:17;2.40;99.90
52889;DHT22;41413;52.770;6.892;2023-03-03T00:13:46;2.30;99.90
52889;DHT22;41413;52.770;6.892;2023-03-03T00:18:46;2.40;99.90
52889;DHT22;41413;52.770;6.892;2023-03-03T00:21:25;2.40;99.90
52889;DHT22;41413;52.770;6.892;2023-03-03T00:26:39;2.30;99.90
52889;DHT22;41413;52.770;6.892;2023-03-03T00:35:24;2.40;99.90
52889;DHT22;41413;52.770;6.892;2023-03-03T00:37:54;2.30;99.90
52889;DHT22;41413;52.770;6.892;2023-03-03T00:40:26;2.30;99.90
52889;DHT22;41413;52.770;6.892;2023-03-03T00:42:58;2.30;99.90
52889;DHT22;41413;52.770;6.892;2023-03-03T00:45:45;2.30;99.90
52889;DHT22;41413;52.770;6.892;2023-03-03T00:50:58;2.30;99.90
52889;DHT22;41413;52.770;6.892;2023-03-03T00:53:28;2.30;99.90
52889;DHT22;41413;52.770;6.892;2023-03-03T00:55:55;2.30;99.90
52889;DHT22;41413;52.770;6.892;2023-03-03T00:58:23;2.20;99.90
52889;DHT22;41413;52.770;6.892;2023-03-03T01:00:53;2.30;99.90
52889;DHT22;41413;52.770;6.892;2023-03-03T01:03:24;2.30;99.90
52889;DHT22;41413;52.770;6.892;2023-03-03T01:05:52;2.30;99.90
52889;DHT22;41413;52.770;6.892;2023-03-03T01:08:19;2.30;99.90
52889;DHT22;41413;52.770;6.892;2023-03-03T01:10:52;2.30;99.90
52889;DHT22;41413;52.770;6.892;2023-03-03T01:13:23;2.30;99.90
52889;DHT22;41413;52.770;6.892;2023-03-03T01:15:50;2.30;99.90
52889;DHT22;41413;52.770;6.892;2023-03-03T01:18:17;2.20;99.90
52889;DHT22;41413;52.770;6.892;2023-03-03T01:20:44;2.30;99.90
52889;DHT22;41413;52.770;6.892;2023-03-03T01:23:11;2.30;99.90
52889;DHT22;41413;52.770;6.892;2023-03-03T01:25:38;2.30;99.90
52889;DHT22;41413;52.770;6.892;2023-03-03T01:28:04;2.20;99.90
52889;DHT22;41413;52.770;6.892;2023-03-03T01:30:31;2.20;99.90
52889;DHT22;41413;52.770;6.892;2023-03-03T01:32:58;2.20;99.90
52889;DHT22;41413;52.770;6.892;2023-03-03T01:35:25;2.20;99.90
52889;DHT22;41413;52.770;6.892;2023-03-03T01:37:52;2.20;99.90
52889;DHT22;41413;52.770;6.892;2023-03-03T01:40:22;2.10;99.90
52889;DHT22;41413;52.770;6.892;2023-03-03T01:42:50;2.20;99.90
52889;DHT22;41413;52.770;6.892;2023-03-03T01:45:27;2.10;99.90
52889;DHT22;41413;52.770;6.892;2023-03-03T01:48:18;2.10;99.90
52889;DHT22;41413;52.770;6.892;2023-03-03T01:50:51;2.10;99.90
52889;DHT22;41413;52.770;6.892;2023-03-03T01:53:30;2.10;99.90
52889;DHT22;41413;52.770;6.892;2023-03-03T01:55:59;2.10;99.90
52889;DHT22;41413;52.770;6.892;2023-03-03T01:59:07;2.10;99.90
52889;DHT22;41413;52.770;6.892;2023-03-03T02:01:35;2.10;99.90
52889;DHT22;41413;52.770;6.892;2023-03-03T02:04:02;2.10;99.90
52889;DHT22;41413;52.770;6.892;2023-03-03T02:06:32;2.10;99.90
52889;DHT22;41413;52.770;6.892;2023-03-03T02:09:32;2.10;99.90
52889;DHT22;41413;52.770;6.892;2023-03-03T02:12:04;2.10;99.90
52889;DHT22;41413;52.770;6.892;2023-03-03T02:14:32;2.10;99.90
52889;DHT22;41413;52.770;6.892;2023-03-03T02:17:00;2.10;99.90
52889;DHT22;41413;52.770;6.892;2023-03-03T02:19:41;2.10;99.90
52889;DHT22;41413;52.770;6.892;2023-03-03T02:22:10;2.10;99.90
52889;DHT22;41413;52.770;6.892;2023-03-03T02:24:56;2.10;99.90
52889;DHT22;41413;52.770;6.892;2023-03-03T02:27:27;2.10;99.90
52889;DHT22;41413;52.770;6.892;2023-03-03T02:29:56;2.10;99.90
52889;DHT22;41413;52.770;6.892;2023-03-03T02:32:23;2.10;99.90
52889;DHT22;41413;52.770;6.892;2023-03-03T02:34:51;2.10;99.90
52889;DHT22;41413;52.770;6.892;2023-03-03T02:37:19;2.10;99.90
52889;DHT22;41413;52.770;6.892;2023-03-03T02:39:46;2.10;99.90
52889;DHT22;41413;52.770;6.892;2023-03-03T02:42:20;2.10;99.90
52889;DHT22;41413;52.770;6.892;2023-03-03T02:44:49;2.10;99.90
52889;DHT22;41413;52.770;6.892;2023-03-03T02:47:16;2.10;99.90
52889;DHT22;41413;52.770;6.892;2023-03-03T02:49:42;2.10;99.90
52889;DHT22;41413;52.770;6.892;2023-03-03T02:52:11;2.10;99.90
52889;DHT22;41413;52.770;6.892;2023-03-03T02:54:40;2.20;99.90
52889;DHT22;41413;52.770;6.892;2023-03-03T02:57:06;2.10;99.90
52889;DHT22;41413;52.770;6.892;2023-03-03T02:59:34;2.10;99.90
52889;DHT22;41413;52.770;6.892;2023-03-03T03:02:01;2.10;99.90
52889;DHT22;41413;52.770;6.892;2023-03-03T03:04:27;2.10;99.90
52889;DHT22;41413;52.770;6.892;2023-03-03T03:06:55;2.10;99.90
52889;DHT22;41413;52.770;6.892;2023-03-03T03:09:23;2.10;99.90
52889;DHT22;41413;52.770;6.892;2023-03-03T03:11:50;2.10;99.90
52889;DHT22;41413;52.770;6.892;2023-03-03T03:14:17;2.10;99.90
52889;DHT22;41413;52.770;6.892;2023-03-03T03:16:44;2.10;99.90
52889;DHT22;41413;52.770;6.892;2023-03-03T03:19:11;2.00;99.90
52889;DHT22;41413;52.770;6.892;2023-03-03T03:21:38;2.00;99.90
52889;DHT22;41413;52.770;6.892;2023-03-03T03:24:05;2.00;99.90
52889;DHT22;41413;52.770;6.892;2023-03-03T03:26:31;2.00;99.90
52889;DHT22;41413;52.770;6.892;2023-03-03T03:28:58;2.00;99.90
52889;DHT22;41413;52.770;6.892;2023-03-03T03:31:25;2.00;99.90
52889;DHT22;41413;52.770;6.892;2023-03-03T03:33:51;2.00;99.90
52889;DHT22;41413;52.770;6.892;2023-03-03T03:36:18;2.00;99.90
52889;DHT22;41413;52.770;6.892;2023-03-03T03:38:45;2.00;99.90
52889;DHT22;41413;52.770;6.892;2023-03-03T03:41:12;2.10;99.90
52889;DHT22;41413;52.770;6.892;2023-03-03T03:43:39;2.00;99.90
52889;DHT22;41413;52.770;6.892;2023-03-03T03:46:06;2.00;99.90
52889;DHT22;41413;52.770;6.892;2023-03-03T03:48:33;2.00;99.90
52889;DHT22;41413;52.770;6.892;2023-03-03T03:51:00;1.90;99.90
52889;DHT22;41413;52.770;6.892;2023-03-03T03:53:27;1.90;99.90
52889;DHT22;41413;52.770;6.892;2023-03-03T03:55:54;1.90;99.90
52889;DHT22;41413;52.770;6.892;2023-03-03T03:58:21;1.90;99.90
52889;DHT22;41413;52.770;6.892;2023-03-03T04:00:47;1.90;99.90
52889;DHT22;41413;52.770;6.892;2023-03-03T04:03:14;1.90;99.90
52889;DHT22;41413;52.770;6.892;2023-03-03T04:05:42;1.90;99.90
52889;DHT22;41413;52.770;6.892;2023-03-03T04:08:09;2.00;99.90
52889;DHT22;41413;52.770;6.892;2023-03-03T04:10:36;2.00;99.90
52889;DHT22;41413;52.770;6.892;2023-03-03T04:13:03;2.00;99.90
52889;DHT22;41413;52.770;6.892;2023-03-03T04:15:30;2.00;99.90
52889;DHT22;41413;52.770;6.892;2023-03-03T04:17:56;2.00;99.90
52889;DHT22;41413;52.770;6.892;2023-03-03T04:20:23;2.00;99.90
52889;DHT22;41413;52.770;6.892;2023-03-03T04:22:50;2.00;99.90
52889;DHT22;41413;52.770;6.892;2023-03-03T04:25:17;2.00;99.90
52889;DHT22;41413;52.770;6.892;2023-03-03T04:27:44;2.00;99.90
52889;DHT22;41413;52.770;6.892;2023-03-03T04:30:13;2.00;99.90
52889;DHT22;41413;52.770;6.892;2023-03-03T04:32:40;2.00;99.90
52889;DHT22;41413;52.770;6.892;2023-03-03T04:35:08;2.00;99.90
52889;DHT22;41413;52.770;6.892;2023-03-03T04:37:35;2.00;99.90
52889;DHT22;41413;52.770;6.892;2023-03-03T04:40:04;2.10;99.90
52889;DHT22;41413;52.770;6.892;2023-03-03T04:42:32;2.10;99.90
52889;DHT22;41413;52.770;6.892;2023-03-03T04:44:59;2.00;99.90
52889;DHT22;41413;52.770;6.892;2023-03-03T04:47:25;2.10;99.90
52889;DHT22;41413;52.770;6.892;2023-03-03T04:49:52;2.10;99.90
52889;DHT22;41413;52.770;6.892;2023-03-03T04:52:19;2.00;99.90
52889;DHT22;41413;52.770;6.892;2023-03-03T04:54:45;2.10;99.90
52889;DHT22;41413;52.770;6.892;2023-03-03T04:57:12;2.10;99.90
52889;DHT22;41413;52.770;6.892;2023-03-03T04:59:39;2.10;99.90
52889;DHT22;41413;52.770;6.892;2023-03-03T05:02:05;2.00;99.90
52889;DHT22;41413;52.770;6.892;2023-03-03T05:04:32;2.00;99.90
52889;DHT22;41413;52.770;6.892;2023-03-03T05:06:59;2.10;99.90
52889;DHT22;41413;52.770;6.892;2023-03-03T05:09:26;2.00;99.90
52889;DHT22;41413;52.770;6.892;2023-03-03T05:11:53;2.10;99.90
52889;DHT22;41413;52.770;6.892;2023-03-03T05:14:19;2.10;99.90
52889;DHT22;41413;52.770;6.892;2023-03-03T05:16:46;2.00;99.90
52889;DHT22;41413;52.770;6.892;2023-03-03T05:19:13;2.00;99.90
52889;DHT22;41413;52.770;6.892;2023-03-03T05:21:40;2.10;99.90
52889;DHT22;41413;52.770;6.892;2023-03-03T05:24:14;2.10;99.90
52889;DHT22;41413;52.770;6.892;2023-03-03T05:26:41;2.10;99.90
52889;DHT22;41413;52.770;6.892;2023-03-03T05:29:08;2.10;99.90
52889;DHT22;41413;52.770;6.892;2023-03-03T05:31:36;2.10;99.90
52889;DHT22;41413;52.770;6.892;2023-03-03T05:34:03;2.10;99.90
52889;DHT22;41413;52.770;6.892;2023-03-03T05:36:30;2.10;99.90
52889;DHT22;41413;52.770;6.892;2023-03-03T05:38:56;2.00;99.90
52889;DHT22;41413;52.770;6.892;2023-03-03T05:41:23;2.00;99.90
52889;DHT22;41413;52.770;6.892;2023-03-03T05:43:50;2.00;99.90
52889;DHT22;41413;52.770;6.892;2023-03-03T05:46:17;2.00;99.90
52889;DHT22;41413;52.770;6.892;2023-03-03T05:48:43;2.10;99.90
52889;DHT22;41413;52.770;6.892;2023-03-03T05:51:11;2.10;99.90
52889;DHT22;41413;52.770;6.892;2023-03-03T05:53:38;2.10;99.90
52889;DHT22;41413;52.770;6.892;2023-03-03T05:56:05;2.20;99.90
52889;DHT22;41413;52.770;6.892;2023-03-03T05:58:31;2.20;99.90
52889;DHT22;41413;52.770;6.892;2023-03-03T06:00:58;2.20;99.90
52889;DHT22;41413;52.770;6.892;2023-03-03T06:03:25;2.20;99.90
52889;DHT22;41413;52.770;6.892;2023-03-03T06:05:52;2.20;99.90
52889;DHT22;41413;52.770;6.892;2023-03-03T06:08:18;2.20;99.90
52889;DHT22;41413;52.770;6.892;2023-03-03T06:10:45;2.20;99.90
52889;DHT22;41413;52.770;6.892;2023-03-03T06:13:12;2.20;99.90
52889;DHT22;41413;52.770;6.892;2023-03-03T06:15:38;2.20;99.90
52889;DHT22;41413;52.770;6.892;2023-03-03T06:18:05;2.20;99.90
52889;DHT22;41413;52.770;6.892;2023-03-03T06:20:32;2.20;99.90
52889;DHT22;41413;52.770;6.892;2023-03-03T06:22:59;2.20;99.90
52889;DHT22;41413;52.770;6.892;2023-03-03T06:25:26;2.20;99.90
52889;DHT22;41413;52.770;6.892;2023-03-03T06:27:53;2.10;99.90
52889;DHT22;41413;52.770;6.892;2023-03-03T06:30:20;2.10;99.90
52889;DHT22;41413;52.770;6.892;2023-03-03T06:32:46;2.20;99.90
52889;DHT22;41413;52.770;6.892;2023-03-03T06:35:13;2.20;99.90
52889;DHT22;41413;52.770;6.892;2023-03-03T06:37:40;2.20;99.90
52889;DHT22;41413;52.770;6.892;2023-03-03T06:40:08;2.20;99.90
52889;DHT22;41413;52.770;6.892;2023-03-03T06:42:34;2.20;99.90
52889;DHT22;41413;52.770;6.892;2023-03-03T06:45:01;2.30;99.90
52889;DHT22;41413;52.770;6.892;2023-03-03T06:47:28;2.30;99.90
52889;DHT22;41413;52.770;6.892;2023-03-03T06:49:54;2.30;99.90
52889;DHT22;41413;52.770;6.892;2023-03-03T06:52:24;2.40;99.90
52889;DHT22;41413;52.770;6.892;2023-03-03T06:54:57;2.40;99.90
52889;DHT22;41413;52.770;6.892;2023-03-03T06:57:32;2.40;99.90
52889;DHT22;41413;52.770;6.892;2023-03-03T07:00:11;2.40;99.90
52889;DHT22;41413;52.770;6.892;2023-03-03T07:02:39;2.50;99.90
52889;DHT22;41413;52.770;6.892;2023-03-03T07:05:14;2.50;99.90
52889;DHT22;41413;52.770;6.892;2023-03-03T07:07:41;2.50;99.90
52889;DHT22;41413;52.770;6.892;2023-03-03T07:12:46;2.50;99.90
52889;DHT22;41413;52.770;6.892;2023-03-03T07:15:29;2.60;99.90
52889;DHT22;41413;52.770;6.892;2023-03-03T07:17:56;2.70;99.90
52889;DHT22;41413;52.770;6.892;2023-03-03T07:20:32;2.70;99.90
52889;DHT22;41413;52.770;6.892;2023-03-03T07:23:20;2.70;99.90
52889;DHT22;41413;52.770;6.892;2023-03-03T07:25:48;2.70;99.90
52889;DHT22;41413;52.770;6.892;2023-03-03T07:28:28;2.80;99.90
52889;DHT22;41413;52.770;6.892;2023-03-03T07:30:58;2.80;99.90
52889;DHT22;41413;52.770;6.892;2023-03-03T07:33:34;2.90;99.90
52889;DHT22;41413;52.770;6.892;2023-03-03T07:36:02;2.90;99.90
52889;DHT22;41413;52.770;6.892;2023-03-03T07:38:48;3.00;99.90
52889;DHT22;41413;52.770;6.892;2023-03-03T07:41:17;3.10;99.90
52889;DHT22;41413;52.770;6.892;2023-03-03T07:43:52;3.10;99.90
52889;DHT22;41413;52.770;6.892;2023-03-03T07:48:50;3.20;99.90
52889;DHT22;41413;52.770;6.892;2023-03-03T07:51:25;3.20;99.90
52889;DHT22;41413;52.770;6.892;2023-03-03T07:54:12;3.30;99.90
52889;DHT22;41413;52.770;6.892;2023-03-03T07:56:40;3.40;99.90
52889;DHT22;41413;52.770;6.892;2023-03-03T07:59:21;3.40;99.90
52889;DHT22;41413;52.770;6.892;2023-03-03T08:01:51;3.60;99.90
52889;DHT22;41413;52.770;6.892;2023-03-03T08:04:38;3.80;99.90
52889;DHT22;41413;52.770;6.892;2023-03-03T08:07:24;4.20;99.90
52889;DHT22;41413;52.770;6.892;2023-03-03T08:12:38;4.60;99.90
52889;DHT22;41413;52.770;6.892;2023-03-03T08:15:31;4.90;99.90
52889;DHT22;41413;52.770;6.892;2023-03-03T08:18:21;5.00;99.90
52889;DHT22;41413;52.770;6.892;2023-03-03T08:20:53;5.10;99.90
52889;DHT22;41413;52.770;6.892;2023-03-03T08:23:20;5.30;99.90
52889;DHT22;41413;52.770;6.892;2023-03-03T08:25:49;5.30;99.90
52889;DHT22;41413;52.770;6.892;2023-03-03T08:28:16;5.30;99.90
52889;DHT22;41413;52.770;6.892;2023-03-03T08:30:44;5.20;99.90
52889;DHT22;41413;52.770;6.892;2023-03-03T08:33:12;5.20;99.90
52889;DHT22;41413;52.770;6.892;2023-03-03T08:35:39;5.10;99.90
52889;DHT22;41413;52.770;6.892;2023-03-03T08:38:07;5.00;99.90
52889;DHT22;41413;52.770;6.892;2023-03-03T08:40:34;4.90;99.90
52889;DHT22;41413;52.770;6.892;2023-03-03T08:43:01;4.80;99.90
52889;DHT22;41413;52.770;6.892;2023-03-03T08:45:28;4.70;99.90
52889;DHT22;41413;52.770;6.892;2023-03-03T08:47:55;4.80;99.90
52889;DHT22;41413;52.770;6.892;2023-03-03T08:50:22;4.80;99.90
52889;DHT22;41413;52.770;6.892;2023-03-03T08:52:49;4.80;99.90
52889;DHT22;41413;52.770;6.892;2023-03-03T08:55:16;4.90;99.90
52889;DHT22;41413;52.770;6.892;2023-03-03T08:57:43;4.90;99.90
52889;DHT22;41413;52.770;6.892;2023-03-03T09:00:13;4.90;99.90
52889;DHT22;41413;52.770;6.892;2023-03-03T09:02:41;5.00;99.90
52889;DHT22;41413;52.770;6.892;2023-03-03T09:05:09;5.30;99.90
52889;DHT22;41413;52.770;6.892;2023-03-03T09:07:37;5.50;99.90
52889;DHT22;41413;52.770;6.892;2023-03-03T09:10:05;5.60;99.90
52889;DHT22;41413;52.770;6.892;2023-03-03T09:12:38;5.80;99.90
52889;DHT22;41413;52.770;6.892;2023-03-03T09:15:14;6.10;99.90
52889;DHT22;41413;52.770;6.892;2023-03-03T09:17:41;6.10;99.90
52889;DHT22;41413;52.770;6.892;2023-03-03T09:23:20;6.10;99.90
52889;DHT22;41413;52.770;6.892;2023-03-03T09:25:52;6.00;99.90
52889;DHT22;41413;52.770;6.892;2023-03-03T09:28:23;6.00;99.90
52889;DHT22;41413;52.770;6.892;2023-03-03T09:30:52;5.90;99.90
52889;DHT22;41413;52.770;6.892;2023-03-03T09:33:22;6.10;99.90
52889;DHT22;41413;52.770;6.892;2023-03-03T09:36:00;6.40;99.90
52889;DHT22;41413;52.770;6.892;2023-03-03T09:38:34;6.40;99.90
52889;DHT22;41413;52.770;6.892;2023-03-03T09:44:15;6.70;99.90
52889;DHT22;41413;52.770;6.892;2023-03-03T09:49:33;7.00;99.90
52889;DHT22;41413;52.770;6.892;2023-03-03T09:55:43;7.20;99.90
52889;DHT22;41413;52.770;6.892;2023-03-03T09:57:53;7.90;99.90
52889;DHT22;41413;52.770;6.892;2023-03-03T10:03:50;7.40;99.90
52889;DHT22;41413;52.770;6.892;2023-03-03T10:09:26;7.80;99.90
52889;DHT22;41413;52.770;6.892;2023-03-03T10:12:26;8.00;99.90
52889;DHT22;41413;52.770;6.892;2023-03-03T10:17:28;8.10;99.90
52889;DHT22;41413;52.770;6.892;2023-03-03T10:22:35;7.60;99.90
52889;DHT22;41413;52.770;6.892;2023-03-03T10:36:22;7.00;99.90
52889;DHT22;41413;52.770;6.892;2023-03-03T10:38:59;6.90;99.90
52889;DHT22;41413;52.770;6.892;2023-03-03T10:44:24;7.00;99.90
52889;DHT22;41413;52.770;6.892;2023-03-03T10:49:45;7.10;99.90
52889;DHT22;41413;52.770;6.892;2023-03-03T11:00:43;6.90;99.90
52889;DHT22;41413;52.770;6.892;2023-03-03T11:06:04;6.80;99.90
52889;DHT22;41413;52.770;6.892;2023-03-03T11:08:41;6.90;99.90
52889;DHT22;41413;52.770;6.892;2023-03-03T11:14:18;6.80;99.90
52889;DHT22;41413;52.770;6.892;2023-03-03T11:22:44;6.70;99.90
52889;DHT22;41413;52.770;6.892;2023-03-03T11:28:31;6.80;99.90
52889;DHT22;41413;52.770;6.892;2023-03-03T11:36:37;6.90;99.90
52889;DHT22;41413;52.770;6.892;2023-03-03T11:39:09;7.00;99.90
52889;DHT22;41413;52.770;6.892;2023-03-03T11:44:48;7.10;99.90
52889;DHT22;41413;52.770;6.892;2023-03-03T11:47:42;7.20;99.90
52889;DHT22;41413;52.770;6.892;2023-03-03T11:55:59;7.20;99.90
52889;DHT22;41413;52.770;6.892;2023-03-03T12:02:03;7.40;99.90
52889;DHT22;41413;52.770;6.892;2023-03-03T12:04:38;7.20;99.90
52889;DHT22;41413;52.770;6.892;2023-03-03T12:10:07;7.50;99.90
52889;DHT22;41413;52.770;6.892;2023-03-03T12:12:54;7.60;99.90
52889;DHT22;41413;52.770;6.892;2023-03-03T12:21:33;7.70;99.90
52889;DHT22;41413;52.770;6.892;2023-03-03T12:25:08;7.90;99.90
52889;DHT22;41413;52.770;6.892;2023-03-03T12:41:20;8.20;99.90
52889;DHT22;41413;52.770;6.892;2023-03-03T12:49:06;8.40;99.90
52889;DHT22;41413;52.770;6.892;2023-03-03T12:54:39;8.50;99.90
52889;DHT22;41413;52.770;6.892;2023-03-03T12:57:42;8.60;99.90
52889;DHT22;41413;52.770;6.892;2023-03-03T13:03:48;8.70;99.90
52889;DHT22;41413;52.770;6.892;2023-03-03T13:12:48;8.40;99.90
52889;DHT22;41413;52.770;6.892;2023-03-03T13:15:27;8.40;99.90
52889;DHT22;41413;52.770;6.892;2023-03-03T13:21:15;8.50;99.90
52889;DHT22;41413;52.770;6.892;2023-03-03T13:26:44;8.50;99.90
52889;DHT22;41413;52.770;6.892;2023-03-03T13:31:48;8.40;99.90
52889;DHT22;41413;52.770;6.892;2023-03-03T13:34:25;8.50;99.90
52889;DHT22;41413;52.770;6.892;2023-03-03T13:37:22;8.60;99.90
52889;DHT22;41413;52.770;6.892;2023-03-03T13:39:55;8.80;99.90
52889;DHT22;41413;52.770;6.892;2023-03-03T13:42:38;8.80;99.90
52889;DHT22;41413;52.770;6.892;2023-03-03T13:45:16;8.80;99.90
52889;DHT22;41413;52.770;6.892;2023-03-03T13:50:54;9.00;99.90
52889;DHT22;41413;52.770;6.892;2023-03-03T13:56:04;9.10;99.90
52889;DHT22;41413;52.770;6.892;2023-03-03T14:02:00;9.30;99.90
52889;DHT22;41413;52.770;6.892;2023-03-03T14:07:19;9.20;99.90
52889;DHT22;41413;52.770;6.892;2023-03-03T14:12:37;9.00;99.90
52889;DHT22;41413;52.770;6.892;2023-03-03T14:18:04;9.20;99.90
52889;DHT22;41413;52.770;6.892;2023-03-03T14:20:38;9.10;99.90
52889;DHT22;41413;52.770;6.892;2023-03-03T14:29:18;8.80;99.90
52889;DHT22;41413;52.770;6.892;2023-03-03T14:31:46;8.80;99.90
52889;DHT22;41413;52.770;6.892;2023-03-03T14:36:57;8.80;99.90
52889;DHT22;41413;52.770;6.892;2023-03-03T14:39:39;8.70;99.90
52889;DHT22;41413;52.770;6.892;2023-03-03T14:42:32;8.70;99.90
52889;DHT22;41413;52.770;6.892;2023-03-03T14:45:00;8.70;99.90
52889;DHT22;41413;52.770;6.892;2023-03-03T14:47:30;8.80;99.90
52889;DHT22;41413;52.770;6.892;2023-03-03T14:49:57;8.90;99.90
52889;DHT22;41413;52.770;6.892;2023-03-03T14:52:30;9.00;99.90
52889;DHT22;41413;52.770;6.892;2023-03-03T14:55:00;8.90;99.90
52889;DHT22;41413;52.770;6.892;2023-03-03T14:57:41;9.00;99.90
52889;DHT22;41413;52.770;6.892;2023-03-03T15:05:24;9.00;99.90
52889;DHT22;41413;52.770;6.892;2023-03-03T15:13:32;9.30;99.90
52889;DHT22;41413;52.770;6.892;2023-03-03T15:18:27;9.10;99.90
52889;DHT22;41413;52.770;6.892;2023-03-03T15:21:07;9.10;99.90
52889;DHT22;41413;52.770;6.892;2023-03-03T15:26:12;8.90;99.90
52889;DHT22;41413;52.770;6.892;2023-03-03T15:36:43;8.80;99.90
52889;DHT22;41413;52.770;6.892;2023-03-03T15:39:40;8.70;99.90
52889;DHT22;41413;52.770;6.892;2023-03-03T15:45:35;8.60;99.90
52889;DHT22;41413;52.770;6.892;2023-03-03T15:48:30;8.40;99.90
52889;DHT22;41413;52.770;6.892;2023-03-03T15:51:10;8.40;99.90
52889;DHT22;41413;52.770;6.892;2023-03-03T15:57:02;8.30;99.90
52889;DHT22;41413;52.770;6.892;2023-03-03T16:02:17;8.10;99.90
52889;DHT22;41413;52.770;6.892;2023-03-03T16:18:03;8.00;99.90
52889;DHT22;41413;52.770;6.892;2023-03-03T16:20:39;7.90;99.90
52889;DHT22;41413;52.770;6.892;2023-03-03T16:32:12;7.80;99.90
52889;DHT22;41413;52.770;6.892;2023-03-03T16:37:31;7.80;99.90
52889;DHT22;41413;52.770;6.892;2023-03-03T16:40:28;7.70;99.90
52889;DHT22;41413;52.770;6.892;2023-03-03T16:43:26;7.70;99.90
52889;DHT22;41413;52.770;6.892;2023-03-03T16:45:58;7.70;99.90
52889;DHT22;41413;52.770;6.892;2023-03-03T16:49:14;7.60;99.90
52889;DHT22;41413;52.770;6.892;2023-03-03T16:52:06;7.50;99.90
52889;DHT22;41413;52.770;6.892;2023-03-03T17:00:11;7.40;99.90
52889;DHT22;41413;52.770;6.892;2023-03-03T17:10:47;7.10;99.90
52889;DHT22;41413;52.770;6.892;2023-03-03T17:44:56;6.90;99.90
52889;DHT22;41413;52.770;6.892;2023-03-03T17:53:30;6.80;99.90
52889;DHT22;41413;52.770;6.892;2023-03-03T17:56:17;6.80;99.90
52889;DHT22;41413;52.770;6.892;2023-03-03T17:59:03;6.80;99.90
52889;DHT22;41413;52.770;6.892;2023-03-03T18:10:00;6.80;99.90
52889;DHT22;41413;52.770;6.892;2023-03-03T18:12:58;6.80;99.90
52889;DHT22;41413;52.770;6.892;2023-03-03T18:18:46;6.80;99.90
52889;DHT22;41413;52.770;6.892;2023-03-03T18:21:31;6.80;99.90
52889;DHT22;41413;52.770;6.892;2023-03-03T18:24:32;6.80;99.90
52889;DHT22;41413;52.770;6.892;2023-03-03T18:37:51;6.80;99.90
52889;DHT22;41413;52.770;6.892;2023-03-03T18:42:54;6.80;99.90
52889;DHT22;41413;52.770;6.892;2023-03-03T18:48:08;6.70;99.90
52889;DHT22;41413;52.770;6.892;2023-03-03T18:50:49;6.80;99.90
52889;DHT22;41413;52.770;6.892;2023-03-03T18:53:19;6.80;99.90
52889;DHT22;41413;52.770;6.892;2023-03-03T18:55:48;6.70;99.90
52889;DHT22;41413;52.770;6.892;2023-03-03T19:01:00;6.70;99.90
52889;DHT22;41413;52.770;6.892;2023-03-03T19:03:37;6.70;99.90
52889;DHT22;41413;52.770;6.892;2023-03-03T19:09:03;6.60;99.90
52889;DHT22;41413;52.770;6.892;2023-03-03T19:11:50;6.60;99.90
52889;DHT22;41413;52.770;6.892;2023-03-03T19:16:57;6.60;99.90
52889;DHT22;41413;52.770;6.892;2023-03-03T19:19:28;6.60;99.90
52889;DHT22;41413;52.770;6.892;2023-03-03T19:22:26;6.60;99.90
52889;DHT22;41413;52.770;6.892;2023-03-03T19:25:21;6.60;99.90
52889;DHT22;41413;52.770;6.892;2023-03-03T19:33:27;6.50;99.90
52889;DHT22;41413;52.770;6.892;2023-03-03T19:38:37;6.50;99.90
52889;DHT22;41413;52.770;6.892;2023-03-03T19:41:20;6.50;99.90
52889;DHT22;41413;52.770;6.892;2023-03-03T19:47:03;6.50;99.90
52889;DHT22;41413;52.770;6.892;2023-03-03T19:55:31;6.50;99.90
52889;DHT22;41413;52.770;6.892;2023-03-03T19:58:14;6.50;99.90
52889;DHT22;41413;52.770;6.892;2023-03-03T20:01:05;6.50;99.90
52889;DHT22;41413;52.770;6.892;2023-03-03T20:03:58;6.40;99.90
52889;DHT22;41413;52.770;6.892;2023-03-03T20:12:18;6.40;99.90
52889;DHT22;41413;52.770;6.892;2023-03-03T20:15:05;6.40;99.90
52889;DHT22;41413;52.770;6.892;2023-03-03T20:17:42;6.40;99.90
52889;DHT22;41413;52.770;6.892;2023-03-03T20:20:35;6.40;99.90
52889;DHT22;41413;52.770;6.892;2023-03-03T20:23:24;6.40;99.90
52889;DHT22;41413;52.770;6.892;2023-03-03T20:31:41;6.40;99.90
52889;DHT22;41413;52.770;6.892;2023-03-03T20:34:19;6.30;99.90
52889;DHT22;41413;52.770;6.892;2023-03-03T20:37:04;6.30;99.90
52889;DHT22;41413;52.770;6.892;2023-03-03T20:40:11;6.40;99.90
52889;DHT22;41413;52.770;6.892;2023-03-03T20:45:54;6.40;99.90
52889;DHT22;41413;52.770;6.892;2023-03-03T20:48:49;6.40;99.90
52889;DHT22;41413;52.770;6.892;2023-03-03T20:54:55;6.40;99.90
52889;DHT22;41413;52.770;6.892;2023-03-03T21:00:21;6.30;99.90
52889;DHT22;41413;52.770;6.892;2023-03-03T21:03:07;6.40;99.90
52889;DHT22;41413;52.770;6.892;2023-03-03T21:05:52;6.30;99.90
52889;DHT22;41413;52.770;6.892;2023-03-03T21:08:20;6.40;99.90
52889;DHT22;41413;52.770;6.892;2023-03-03T21:10:55;6.30;99.90
52889;DHT22;41413;52.770;6.892;2023-03-03T21:13:34;6.30;99.90
52889;DHT22;41413;52.770;6.892;2023-03-03T21:18:38;6.30;99.90
52889;DHT22;41413;52.770;6.892;2023-03-03T21:21:05;6.30;99.90
52889;DHT22;41413;52.770;6.892;2023-03-03T21:23:32;6.30;99.90
52889;DHT22;41413;52.770;6.892;2023-03-03T21:25:59;6.20;99.90
52889;DHT22;41413;52.770;6.892;2023-03-03T21:28:28;6.20;99.90
52889;DHT22;41413;52.770;6.892;2023-03-03T21:31:07;6.30;99.90
52889;DHT22;41413;52.770;6.892;2023-03-03T21:38:57;6.30;99.90
52889;DHT22;41413;52.770;6.892;2023-03-03T21:41:27;6.30;99.90
52889;DHT22;41413;52.770;6.892;2023-03-03T21:44:36;6.30;99.90
52889;DHT22;41413;52.770;6.892;2023-03-03T21:47:05;6.30;99.90
52889;DHT22;41413;52.770;6.892;2023-03-03T21:49:32;6.20;99.90
52889;DHT22;41413;52.770;6.892;2023-03-03T21:51:59;6.20;99.90
52889;DHT22;41413;52.770;6.892;2023-03-03T21:54:26;6.20;99.90
52889;DHT22;41413;52.770;6.892;2023-03-03T21:56:53;6.20;99.90
52889;DHT22;41413;52.770;6.892;2023-03-03T21:59:19;6.20;99.90
52889;DHT22;41413;52.770;6.892;2023-03-03T22:01:46;6.20;99.90
52889;DHT22;41413;52.770;6.892;2023-03-03T22:04:13;6.30;99.90
52889;DHT22;41413;52.770;6.892;2023-03-03T22:06:40;6.20;99.90
52889;DHT22;41413;52.770;6.892;2023-03-03T22:09:07;6.20;99.90
52889;DHT22;41413;52.770;6.892;2023-03-03T22:11:34;6.30;99.90
52889;DHT22;41413;52.770;6.892;2023-03-03T22:14:01;6.30;99.90
52889;DHT22;41413;52.770;6.892;2023-03-03T22:16:27;6.30;99.90
52889;DHT22;41413;52.770;6.892;2023-03-03T22:18:54;6.20;99.90
52889;DHT22;41413;52.770;6.892;2023-03-03T22:21:21;6.20;99.90
52889;DHT22;41413;52.770;6.892;2023-03-03T22:23:47;6.20;99.90
52889;DHT22;41413;52.770;6.892;2023-03-03T22:26:14;6.20;99.90
52889;DHT22;41413;52.770;6.892;2023-03-03T22:28:41;6.20;99.90
52889;DHT22;41413;52.770;6.892;2023-03-03T22:31:10;6.20;99.90